Time;durP1;ratioP1;P1;durP2;ratioP2;P2;SDS_P1;SDS_P2;PMS_P1;PMS_P2;Temp;Humidity;BMP_temperature;BMP_pressure;BME280_temperature;BME280_humidity;BME280_pressure;Samples;Min_cycle;Max_cycle;Signal;HPM_P1;HPM_P2
2021/05/18 00:00:19;;;;;;;19.17;16.90;;;;;;;10.31;89.79;97829.89;124543;1099;64425;-80
2021/05/18 00:03:07;;;;;;;19.43;16.33;;;;;;;10.27;89.69;97823.13;124528;1104;64316;-80
2021/05/18 00:05:39;;;;;;;20.07;17.83;;;;;;;10.26;89.76;97821.41;124570;1104;64460;-80
2021/05/18 00:08:09;;;;;;;19.17;17.03;;;;;;;10.26;89.77;97826.73;124608;1099;64408;-82
2021/05/18 00:13:24;;;;;;;17.97;14.33;;;;;;;10.21;89.83;97827.12;124507;1099;64398;-81
2021/05/18 00:15:55;;;;;;;15.13;13.50;;;;;;;10.22;90.03;97823.50;124631;1100;64461;-80
2021/05/18 00:18:24;;;;;;;15.87;13.13;;;;;;;10.22;89.83;97828.83;124630;1104;64378;-79
2021/05/18 00:20:52;;;;;;;16.13;14.03;;;;;;;10.24;89.93;97823.36;124527;1104;64306;-79
2021/05/18 00:23:19;;;;;;;15.97;12.60;;;;;;;10.24;90.02;97832.22;124449;1099;64348;-81
2021/05/18 00:25:47;;;;;;;15.60;12.75;;;;;;;10.23;90.07;97829.67;124467;1104;64357;-80
2021/05/18 00:28:14;;;;;;;16.85;12.85;;;;;;;10.24;90.27;97821.56;124477;1105;64364;-80
2021/05/18 00:30:42;;;;;;;15.93;13.63;;;;;;;10.24;90.12;97824.22;124467;1099;64425;-80
2021/05/18 00:33:19;;;;;;;16.83;12.90;;;;;;;10.24;90.27;97828.68;124448;1099;64336;-80
2021/05/18 00:35:48;;;;;;;14.90;12.60;;;;;;;10.22;90.26;97831.49;124454;1100;64687;-80
2021/05/18 00:38:18;;;;;;;13.40;11.25;;;;;;;10.22;90.38;97833.31;124548;1104;64358;-80
2021/05/18 00:40:48;;;;;;;13.70;12.07;;;;;;;10.21;90.16;97840.43;124528;1104;64358;-80
2021/05/18 00:43:15;;;;;;;15.93;11.70;;;;;;;10.19;90.18;97838.88;124480;1104;64751;-80
2021/05/18 00:45:46;;;;;;;14.97;11.23;;;;;;;10.19;90.39;97838.88;124502;1104;64473;-80
2021/05/18 00:48:15;;;;;;;16.50;13.33;;;;;;;10.18;90.19;97845.18;124618;1099;64345;-80
2021/05/18 00:50:46;;;;;;;12.97;11.13;;;;;;;10.17;90.21;97839.02;124455;1100;64470;-80
2021/05/18 00:53:14;;;;;;;14.37;11.80;;;;;;;10.15;90.38;97848.11;124568;1099;64342;-80
2021/05/18 00:55:47;;;;;;;16.80;13.17;;;;;;;10.11;90.54;97848.37;124461;1104;64405;-80
2021/05/18 00:58:27;;;;;;;15.43;11.93;;;;;;;10.11;90.45;97848.37;124482;1104;64413;-80
2021/05/18 01:01:02;;;;;;;13.10;11.60;;;;;;;10.10;90.46;97849.32;124455;1105;64425;-80
2021/05/18 01:03:30;;;;;;;13.13;11.20;;;;;;;10.09;90.39;97850.30;124466;1105;64349;-80
2021/05/18 01:08:47;;;;;;;14.10;12.60;;;;;;;10.07;90.50;97849.58;124443;1099;64924;-80
2021/05/18 01:11:16;;;;;;;15.90;13.00;;;;;;;10.06;90.35;97852.39;124483;1105;64387;-80
2021/05/18 01:13:44;;;;;;;14.08;12.43;;;;;;;10.06;90.45;97844.41;124529;1105;64262;-80
2021/05/18 01:16:11;;;;;;;15.07;12.97;;;;;;;10.06;90.81;97855.89;124461;1104;64336;-80
2021/05/18 01:18:42;;;;;;;17.10;13.30;;;;;;;10.03;90.63;97850.83;124542;1100;64349;-80
2021/05/18 01:21:12;;;;;;;13.97;12.13;;;;;;;10.03;90.68;97855.28;124577;1099;64313;-80
2021/05/18 01:23:43;;;;;;;13.20;11.87;;;;;;;10.01;90.64;97860.75;124512;1100;64383;-80
2021/05/18 01:26:13;;;;;;;13.73;12.20;;;;;;;10.02;90.83;97853.60;124519;1100;64342;-80
2021/05/18 01:28:41;;;;;;;14.23;12.00;;;;;;;10.02;91.08;97853.60;124619;1105;64314;-78
2021/05/18 01:31:11;;;;;;;13.80;12.40;;;;;;;10.00;90.66;97853.72;124524;1104;64367;-81
2021/05/18 01:33:38;;;;;;;13.60;11.30;;;;;;;9.99;90.54;97852.04;124562;1100;64281;-81
2021/05/18 01:36:11;;;;;;;13.73;11.73;;;;;;;9.98;90.73;97857.47;124616;1104;64690;-81
2021/05/18 01:38:56;;;;;;;12.70;11.40;;;;;;;9.97;90.70;97850.47;124507;1104;64364;-79
2021/05/18 01:44:11;;;;;;;13.25;11.95;;;;;;;9.90;90.96;97858.14;124479;1104;64359;-79
2021/05/18 01:46:39;;;;;;;14.73;12.97;;;;;;;9.85;90.92;97853.19;124625;1104;64329;-81
2021/05/18 01:49:09;;;;;;;13.50;12.13;;;;;;;9.86;91.04;97854.02;124651;1105;64486;-80
2021/05/18 01:51:39;;;;;;;13.87;12.07;;;;;;;9.86;91.12;97856.69;124627;1104;64329;-80
2021/05/18 01:54:18;;;;;;;13.77;12.00;;;;;;;9.85;91.02;97861.17;124551;1105;64246;-80
2021/05/18 01:59:20;;;;;;;13.97;12.47;;;;;;;9.88;91.06;97868.89;124764;1100;64271;-81
2021/05/18 02:01:51;;;;;;;11.73;10.53;;;;;;;9.91;91.19;97869.63;124569;1104;64435;-80
2021/05/18 02:04:35;;;;;;;14.90;12.00;;;;;;;9.91;90.97;97875.78;124565;1099;64428;-81
2021/05/18 02:07:21;;;;;;;10.50;9.40;;;;;;;9.92;91.02;97869.48;124580;1104;64332;-80
2021/05/18 02:09:49;;;;;;;12.40;10.03;;;;;;;9.94;91.01;97874.69;124548;1099;64284;-80
2021/05/18 02:12:17;;;;;;;11.30;10.20;;;;;;;9.95;91.00;97877.20;124526;1104;64801;-80
2021/05/18 02:14:48;;;;;;;13.53;11.67;;;;;;;9.95;90.93;97881.69;124571;1104;64483;-80
2021/05/18 02:17:22;;;;;;;12.47;11.20;;;;;;;9.95;91.00;97885.19;124548;1100;64320;-81
2021/05/18 02:25:03;;;;;;;11.97;10.77;;;;;;;9.96;90.96;97883.39;124521;1104;64342;-80
2021/05/18 02:27:31;;;;;;;13.10;11.30;;;;;;;9.95;90.98;97887.84;124568;1100;64408;-80
2021/05/18 02:30:00;;;;;;;13.30;11.90;;;;;;;9.93;91.05;97889.81;124610;1104;64345;-81
2021/05/18 02:32:28;;;;;;;13.03;11.70;;;;;;;9.94;91.11;97880.01;124512;1104;64735;-81
2021/05/18 02:34:56;;;;;;;12.35;11.05;;;;;;;9.94;91.07;97893.31;124563;1104;64310;-80
2021/05/18 02:37:24;;;;;;;11.60;10.47;;;;;;;9.95;91.04;97887.01;124553;1098;65656;-81
2021/05/18 02:39:52;;;;;;;11.47;10.30;;;;;;;9.95;91.25;97893.17;124577;1105;64349;-80
2021/05/18 02:42:19;;;;;;;11.00;9.90;;;;;;;9.96;91.28;97886.89;124590;1104;64336;-80
2021/05/18 02:50:00;;;;;;;12.27;10.87;;;;;;;9.95;91.29;97900.31;124557;1104;64390;-80
2021/05/18 02:52:29;;;;;;;12.53;11.23;;;;;;;9.95;91.09;97895.00;124566;1104;64480;-80
2021/05/18 02:54:57;;;;;;;14.20;11.50;;;;;;;9.95;91.32;97903.81;124610;1099;64358;-80
2021/05/18 02:57:35;;;;;;;13.00;10.17;;;;;;;9.95;91.28;97895.83;124587;1099;64285;-80
2021/05/18 03:00:08;;;;;;;9.40;8.43;;;;;;;9.97;91.39;97901.05;124536;1104;64329;-81
2021/05/18 03:02:36;;;;;;;10.30;9.30;;;;;;;9.93;91.22;97897.80;124517;1104;64307;-81
2021/05/18 03:05:05;;;;;;;10.13;8.37;;;;;;;9.95;91.32;97900.31;124546;1104;64495;-80
2021/05/18 03:07:32;;;;;;;9.83;8.93;;;;;;;9.96;91.36;97899.36;124619;1098;64352;-80
2021/05/18 03:09:59;;;;;;;10.20;9.20;;;;;;;9.97;91.40;97912.53;124641;1099;64333;-80
2021/05/18 03:12:28;;;;;;;10.95;9.85;;;;;;;10.00;91.36;97909.61;124587;1105;64293;-80
2021/05/18 03:14:56;;;;;;;10.27;9.27;;;;;;;10.00;91.41;97912.27;124679;1100;64312;-80
2021/05/18 03:17:23;;;;;;;9.67;8.77;;;;;;;9.98;91.24;97916.90;124600;1104;64403;-81
2021/05/18 03:19:50;;;;;;;9.10;8.20;;;;;;;9.98;91.47;97916.90;124580;1105;64374;-80
2021/05/18 03:22:18;;;;;;;10.90;9.80;;;;;;;9.98;91.38;97916.90;124555;1100;64673;-80
2021/05/18 03:24:45;;;;;;;10.10;8.90;;;;;;;10.00;91.49;97916.76;124532;1100;64361;-80
2021/05/18 03:27:13;;;;;;;11.90;10.10;;;;;;;10.00;91.33;97927.41;124570;1100;64467;-81
2021/05/18 03:29:42;;;;;;;11.60;9.47;;;;;;;10.00;91.48;97928.24;124647;1100;64403;-80
2021/05/18 03:34:55;;;;;;;11.17;10.07;;;;;;;10.06;91.40;97933.09;124554;1105;64348;-81
2021/05/18 03:37:34;;;;;;;12.43;11.10;;;;;;;10.08;91.37;97932.94;124602;1098;64333;-81
2021/05/18 03:40:07;;;;;;;11.00;10.00;;;;;;;10.09;91.46;97931.98;124612;1100;64410;-81
2021/05/18 03:42:48;;;;;;;11.10;10.00;;;;;;;10.10;91.34;97936.33;124665;1098;64287;-81
2021/05/18 03:45:20;;;;;;;10.33;9.27;;;;;;;10.14;91.45;97942.23;124532;1098;64381;-81
2021/05/18 03:53:38;;;;;;;11.50;10.30;;;;;;;10.18;91.28;97949.02;124723;1098;64288;-81
2021/05/18 03:59:08;;;;;;;11.60;10.43;;;;;;;10.17;91.44;97947.34;124487;1104;64518;-81
2021/05/18 04:04:24;;;;;;;16.63;15.13;;;;;;;10.20;91.43;97953.24;124470;1100;64336;-79
2021/05/18 04:40:12;;;;;;;21.83;19.53;;;;;;;10.46;91.02;97991.08;124594;1100;64346;-80
2021/05/18 05:06:59;;;;;;;20.10;18.10;;;;;;;10.50;90.97;98013.81;124727;1104;64345;-81
2021/05/18 05:09:29;;;;;;;17.95;16.25;;;;;;;10.54;91.14;98017.09;124686;1105;64352;-81
2021/05/18 05:15:02;;;;;;;15.57;14.00;;;;;;;10.62;90.99;98016.46;124090;1102;64425;-80
2021/05/18 05:17:30;;;;;;;16.03;14.53;;;;;;;10.66;90.75;98018.72;124400;1099;64336;-80
2021/05/18 05:20:00;;;;;;;13.37;11.93;;;;;;;10.64;90.82;98023.36;124455;1100;64349;-80
2021/05/18 05:22:27;;;;;;;12.57;11.27;;;;;;;10.62;90.64;98019.97;124566;1104;64726;-81
2021/05/18 05:24:54;;;;;;;10.37;9.47;;;;;;;10.63;90.80;98018.14;124629;1098;64297;-80
2021/05/18 05:27:22;;;;;;;11.17;9.37;;;;;;;10.60;90.59;98013.91;124453;1104;64341;-81
2021/05/18 05:29:49;;;;;;;11.80;10.70;;;;;;;10.59;90.54;98022.05;124529;1104;64438;-81
2021/05/18 05:32:17;;;;;;;8.80;8.00;;;;;;;10.59;90.65;98024.71;124577;1104;64351;-80
2021/05/18 05:34:44;;;;;;;8.67;7.87;;;;;;;10.58;90.58;98023.84;124663;1100;64377;-81
2021/05/18 05:37:11;;;;;;;7.83;7.13;;;;;;;10.54;90.51;98023.26;124525;1098;64253;-81
2021/05/18 05:39:38;;;;;;;8.85;8.05;;;;;;;10.55;90.39;98030.27;124533;1100;64578;-81
2021/05/18 05:42:06;;;;;;;8.30;7.47;;;;;;;10.58;90.48;98028.33;124615;1104;64489;-81
2021/05/18 05:44:33;;;;;;;7.23;6.53;;;;;;;10.62;90.48;98035.11;124513;1104;64342;-81
2021/05/18 05:47:00;;;;;;;7.90;7.10;;;;;;;10.63;90.27;98028.80;124567;1105;64329;-81
2021/05/18 05:49:27;;;;;;;8.23;7.53;;;;;;;10.62;90.04;98035.95;124566;1104;64891;-81
2021/05/18 05:51:54;;;;;;;9.35;7.15;;;;;;;10.64;89.81;98038.50;124519;1104;64457;-81
2021/05/18 05:54:23;;;;;;;7.63;6.83;;;;;;;10.73;89.92;98035.06;124609;1104;64439;-79
2021/05/18 05:56:50;;;;;;;6.77;6.07;;;;;;;10.80;89.75;98049.58;124529;1104;64342;-80
2021/05/18 05:59:19;;;;;;;7.10;6.50;;;;;;;10.84;89.19;98048.33;124602;1105;64425;-80
2021/05/18 06:01:49;;;;;;;6.63;6.03;;;;;;;10.93;89.23;98049.41;124559;1104;64392;-79
2021/05/18 06:04:16;;;;;;;7.48;6.25;;;;;;;10.95;88.99;98047.44;124454;1104;64312;-80
2021/05/18 06:06:44;;;;;;;6.60;5.90;;;;;;;10.96;88.43;98049.14;124493;1104;64385;-80
2021/05/18 06:09:11;;;;;;;6.30;5.43;;;;;;;10.93;88.54;98057.41;124438;1099;64400;-80
2021/05/18 06:11:52;;;;;;;5.57;4.73;;;;;;;10.92;88.46;98061.86;124464;1104;64292;-80
2021/05/18 06:52:42;;;;;;;7.40;6.40;;;;;;;11.93;85.64;98091.61;124570;1098;64403;-81
2021/05/18 06:55:15;;;;;;;7.60;6.77;;;;;;;11.89;85.76;98091.03;124500;1104;64263;-81
2021/05/18 06:57:51;;;;;;;6.37;5.77;;;;;;;11.99;86.02;98091.09;124576;1104;64489;-80
2021/05/18 07:00:20;;;;;;;5.83;5.23;;;;;;;12.04;85.60;98091.53;124558;1104;64400;-80
2021/05/18 07:02:56;;;;;;;6.40;5.80;;;;;;;12.13;85.34;98081.86;124614;1104;64329;-81
2021/05/18 07:10:43;;;;;;;7.75;7.05;;;;;;;12.15;84.40;98086.09;124561;1099;64293;-81
2021/05/18 07:13:11;;;;;;;;;;;;;;;12.09;84.42;98094.66;124641;1104;64349;-80
2021/05/18 07:15:39;;;;;;;7.10;6.27;;;;;;;12.02;84.44;98093.48;124521;1104;64309;-80
2021/05/18 07:18:07;;;;;;;6.93;6.10;;;;;;;12.03;84.87;98090.70;124608;1104;64361;-81
2021/05/18 07:20:35;;;;;;;5.57;4.80;;;;;;;12.13;85.04;98095.22;124493;1104;64336;-81
2021/05/18 07:23:08;;;;;;;4.40;4.00;;;;;;;12.20;84.80;98094.55;124558;1104;64502;-80
2021/05/18 07:25:37;;;;;;;5.10;3.50;;;;;;;12.22;84.49;98097.09;124556;1104;64365;-81
2021/05/18 07:28:08;;;;;;;4.37;3.47;;;;;;;12.28;84.45;98100.05;124610;1104;64355;-80
2021/05/18 07:30:38;;;;;;;4.43;3.63;;;;;;;12.37;84.43;98102.89;124541;1100;64485;-80
2021/05/18 07:33:06;;;;;;;4.80;4.40;;;;;;;12.32;83.65;98107.80;124637;1100;64332;-80
2021/05/18 07:35:36;;;;;;;3.20;2.87;;;;;;;12.16;83.43;98103.80;124622;1100;64342;-81
2021/05/18 07:38:05;;;;;;;5.23;3.40;;;;;;;12.05;83.75;98114.58;124702;1104;64330;-81
2021/05/18 07:40:33;;;;;;;4.97;3.33;;;;;;;11.99;84.49;98107.95;124541;1100;64253;-81
2021/05/18 07:43:03;;;;;;;4.27;2.80;;;;;;;12.07;84.71;98115.30;124591;1104;64342;-82
2021/05/18 07:45:30;;;;;;;3.33;3.03;;;;;;;12.14;84.78;98116.47;124615;1104;64285;-80
2021/05/18 07:48:10;;;;;;;3.40;3.07;;;;;;;12.27;84.10;98105.55;124537;1104;64429;-80
2021/05/18 07:51:31;;;;;;;4.40;3.90;;;;;;;12.49;84.33;98104.48;124645;1098;64431;-80
2021/05/18 08:07:21;;;;;;;4.73;4.33;;;;;;;12.73;82.93;98112.97;124521;1099;64368;-79
2021/05/18 08:12:19;;;;;;;6.00;5.50;;;;;;;12.71;82.56;98117.60;124520;1104;64456;-80
2021/05/18 09:28:59;;;;;;;5.43;4.40;;;;;;;12.69;82.73;98148.13;124641;1104;64387;-79
2021/05/18 09:33:57;;;;;;;3.73;3.50;;;;;;;13.16;81.42;98169.75;124551;1104;64284;-80
2021/05/18 09:47:40;;;;;;;5.53;5.00;;;;;;;13.59;81.73;98166.71;124511;1105;64341;-80
2021/05/18 10:38:39;;;;;;;6.07;5.10;;;;;;;14.39;79.15;98188.66;124552;1100;64345;-80
2021/05/18 10:41:06;;;;;;;4.40;3.70;;;;;;;14.55;78.31;98195.27;124553;1099;64374;-80
2021/05/18 10:43:34;;;;;;;4.00;3.60;;;;;;;14.63;78.09;98196.22;124544;1100;64358;-81
2021/05/18 10:46:16;;;;;;;3.50;3.20;;;;;;;14.89;78.07;98190.17;124537;1099;64365;-79
2021/05/18 10:48:44;;;;;;;5.93;3.40;;;;;;;15.19;77.66;98186.30;124516;1099;64342;-79
2021/05/18 10:51:35;;;;;;;6.30;2.87;;;;;;;15.46;77.04;98187.27;124452;1100;64316;-80
2021/05/18 10:54:05;;;;;;;4.07;3.20;;;;;;;15.49;77.29;98187.78;124532;1100;64336;-80
2021/05/18 10:57:00;;;;;;;3.17;2.93;;;;;;;15.45;74.93;98191.77;124565;1104;64400;-80
2021/05/18 10:59:39;;;;;;;4.50;3.33;;;;;;;15.30;75.60;98186.10;124506;1104;64355;-80
2021/05/18 11:02:10;;;;;;;4.53;3.53;;;;;;;15.45;75.60;98182.87;124554;1099;64332;-80
2021/05/18 11:04:51;;;;;;;4.90;3.40;;;;;;;15.68;74.50;98177.88;124657;1105;64798;-80
2021/05/18 11:07:20;;;;;;;;;;;;;;;16.00;75.56;98183.53;124609;1098;64390;-80
2021/05/18 11:09:50;;;;;;;5.78;4.00;;;;;;;16.34;73.42;98173.84;124658;1098;64330;-80
2021/05/18 11:12:20;;;;;;;5.00;4.50;;;;;;;16.55;73.12;98178.83;124623;1104;64272;-80
2021/05/18 11:14:50;;;;;;;5.35;4.65;;;;;;;16.77;71.99;98172.02;124591;1104;64431;-80
2021/05/18 11:17:17;;;;;;;6.33;4.03;;;;;;;16.91;71.29;98181.38;124583;1098;64336;-80
2021/05/18 11:19:54;;;;;;;5.27;4.20;;;;;;;16.95;71.78;98171.95;124672;1105;64435;-80
2021/05/18 11:23:20;;;;;;;6.10;4.07;;;;;;;17.15;72.12;98172.53;124675;1104;64333;-80
2021/05/18 11:25:09;;;;;;;5.30;3.13;;;;;;;17.33;72.28;98170.55;124639;1104;64387;-80
2021/05/18 11:27:37;;;;;;;3.70;3.07;;;;;;;17.39;71.31;98172.56;124650;1104;64480;-79
2021/05/18 11:30:07;;;;;;;4.20;3.30;;;;;;;17.35;71.12;98171.20;124696;1104;64339;-80
2021/05/18 11:32:35;;;;;;;3.73;2.93;;;;;;;17.30;70.96;98169.03;124706;1100;64336;-80
2021/05/18 11:35:06;;;;;;;3.50;2.90;;;;;;;17.36;70.82;98172.06;124689;1105;64451;-81
2021/05/18 11:37:34;;;;;;;5.37;3.43;;;;;;;17.61;68.40;98167.53;124632;1104;64374;-82
2021/05/18 11:40:17;;;;;;;5.00;3.47;;;;;;;17.76;69.92;98164.00;124547;1105;64390;-80
2021/05/18 11:42:44;;;;;;;4.23;3.50;;;;;;;18.08;69.08;98158.78;124622;1099;64336;-79
2021/05/18 11:45:16;;;;;;;5.03;3.50;;;;;;;18.22;68.97;98152.70;124482;1098;64648;-80
2021/05/18 11:47:47;;;;;;;3.77;2.80;;;;;;;18.24;69.33;98155.22;124552;1100;64368;-81
2021/05/18 11:50:26;;;;;;;4.60;3.40;;;;;;;18.17;68.93;98155.91;124663;1104;64473;-81
2021/05/18 11:52:55;;;;;;;3.37;2.90;;;;;;;17.98;66.52;98158.95;124636;1099;64358;-81
2021/05/18 11:55:32;;;;;;;5.73;2.90;;;;;;;17.80;66.33;98160.98;124632;1099;64368;-81
2021/05/18 11:58:00;;;;;;;3.80;3.00;;;;;;;17.69;66.99;98160.31;124468;1104;64320;-79
2021/05/18 12:00:34;;;;;;;4.67;2.63;;;;;;;17.60;67.11;98158.61;124571;1099;64341;-80
2021/05/18 12:03:10;;;;;;;4.17;2.60;;;;;;;17.47;67.29;98156.41;124606;1104;64389;-80
2021/05/18 12:05:51;;;;;;;4.07;2.83;;;;;;;17.46;67.45;98160.13;124667;1105;64432;-80
2021/05/18 12:08:35;;;;;;;3.20;2.70;;;;;;;17.70;67.04;98155.77;124534;1104;64411;-80
2021/05/18 12:11:16;;;;;;;3.43;2.93;;;;;;;17.82;67.55;98161.67;124684;1105;64364;-80
2021/05/18 12:13:46;;;;;;;2.97;2.63;;;;;;;17.88;66.84;98155.63;124625;1104;64291;-79
2021/05/18 12:16:16;;;;;;;2.80;2.50;;;;;;;17.75;66.74;98156.09;124531;1100;64345;-80
2021/05/18 12:18:45;;;;;;;2.60;2.25;;;;;;;17.51;66.87;98155.08;124590;1099;64839;-79
2021/05/18 12:21:17;;;;;;;2.87;2.40;;;;;;;17.26;67.37;98159.58;124675;1104;64853;-79
2021/05/18 12:24:02;;;;;;;4.80;2.63;;;;;;;17.15;67.82;98157.21;124551;1098;64405;-80
2021/05/18 12:26:30;;;;;;;3.80;2.00;;;;;;;16.98;67.76;98171.63;124517;1100;64802;-80
2021/05/18 12:29:00;;;;;;;2.70;2.30;;;;;;;16.86;68.73;98174.63;124536;1105;64403;-80
2021/05/18 12:31:35;;;;;;;3.83;1.73;;;;;;;16.78;68.12;98171.91;124517;1104;64332;-81
2021/05/18 12:34:05;;;;;;;3.53;1.40;;;;;;;16.86;68.25;98169.23;124535;1104;64352;-80
2021/05/18 12:36:50;;;;;;;3.03;1.50;;;;;;;17.26;68.56;98170.35;124584;1104;64323;-80
2021/05/18 12:39:17;;;;;;;2.35;1.30;;;;;;;17.55;67.97;98167.19;124560;1099;64346;-79
2021/05/18 12:42:01;;;;;;;2.53;1.57;;;;;;;17.45;68.34;98169.20;124526;1104;64461;-80
2021/05/18 12:44:47;;;;;;;2.50;1.70;;;;;;;17.01;68.04;98174.84;124702;1099;64910;-80
2021/05/18 12:47:26;;;;;;;1.53;1.43;;;;;;;16.42;69.02;98190.86;124745;1099;64365;-81
2021/05/18 12:49:53;;;;;;;2.70;1.77;;;;;;;16.12;69.82;98188.66;124724;1099;64302;-80
2021/05/18 12:52:21;;;;;;;4.17;2.30;;;;;;;15.90;70.02;98206.95;124805;1098;64313;-80
2021/05/18 12:54:55;;;;;;;2.40;1.60;;;;;;;15.67;70.29;98206.59;124677;1098;64341;-82
2021/05/18 12:57:25;;;;;;;3.23;2.20;;;;;;;15.39;71.02;98210.34;124498;1104;64314;-80
2021/05/18 13:00:03;;;;;;;3.43;2.17;;;;;;;15.09;70.81;98221.27;124561;1105;64342;-80
2021/05/18 13:02:36;;;;;;;3.87;2.53;;;;;;;14.74;71.99;98219.31;124462;1104;64259;-80
2021/05/18 13:05:21;;;;;;;3.97;2.90;;;;;;;14.48;72.17;98217.29;124506;1098;64312;-79
2021/05/18 13:08:08;;;;;;;5.60;2.80;;;;;;;14.23;72.82;98215.24;124474;1099;64440;-79
2021/05/18 13:10:50;;;;;;;4.67;2.70;;;;;;;13.99;73.05;98219.23;124474;1099;64341;-79
2021/05/18 13:13:23;;;;;;;4.20;3.40;;;;;;;13.99;73.49;98216.55;124514;1099;64329;-80
2021/05/18 13:16:07;;;;;;;4.77;2.80;;;;;;;14.18;74.22;98207.63;124465;1100;64281;-80
2021/05/18 13:18:34;;;;;;;3.80;3.05;;;;;;;14.49;74.12;98210.09;124606;1104;64259;-80
2021/05/18 13:21:02;;;;;;;3.97;3.47;;;;;;;14.85;73.93;98200.37;124494;1105;64377;-80
2021/05/18 13:23:55;;;;;;;4.40;3.43;;;;;;;15.25;73.25;98212.55;124504;1099;64255;-80
2021/05/18 13:26:26;;;;;;;5.43;3.37;;;;;;;15.68;72.42;98202.05;124510;1104;64393;-80
2021/05/18 13:29:07;;;;;;;2.95;2.70;;;;;;;16.06;72.02;98197.34;124682;1104;64348;-81
2021/05/18 13:31:38;;;;;;;4.20;2.50;;;;;;;16.38;71.21;98202.95;124648;1105;64259;-80
2021/05/18 13:34:07;;;;;;;5.30;2.50;;;;;;;16.61;70.48;98200.56;124699;1105;64459;-80
2021/05/18 13:36:36;;;;;;;3.50;3.10;;;;;;;16.81;69.74;98203.86;124626;1100;64339;-79
2021/05/18 13:39:09;;;;;;;3.10;2.80;;;;;;;16.89;67.68;98200.37;124498;1105;64342;-80
2021/05/18 13:41:37;;;;;;;4.90;4.17;;;;;;;16.96;69.05;98214.03;124700;1104;64322;-80
2021/05/18 13:44:05;;;;;;;5.00;3.90;;;;;;;17.04;68.77;98190.67;124494;1104;64305;-79
2021/05/18 13:46:33;;;;;;;3.93;3.40;;;;;;;17.18;68.91;98189.19;124552;1105;64389;-79
2021/05/18 13:49:00;;;;;;;3.60;2.90;;;;;;;17.28;67.33;98183.66;124481;1100;64329;-80
2021/05/18 13:51:30;;;;;;;3.00;2.30;;;;;;;17.26;67.10;98188.36;124508;1099;64335;-80
2021/05/18 13:53:58;;;;;;;3.10;2.30;;;;;;;17.24;65.05;98188.52;124601;1104;64342;-79
2021/05/18 13:56:26;;;;;;;3.40;2.27;;;;;;;17.13;65.37;98179.92;124680;1104;64344;-80
2021/05/18 13:58:54;;;;;;;2.07;1.80;;;;;;;16.99;65.94;98170.63;124580;1105;64409;-83
2021/05/18 14:01:22;;;;;;;3.80;2.37;;;;;;;16.91;66.89;98184.07;124560;1104;64489;-80
2021/05/18 14:03:49;;;;;;;3.27;2.23;;;;;;;16.81;65.88;98186.88;124510;1105;64472;-79
2021/05/18 14:06:17;;;;;;;3.13;2.00;;;;;;;16.83;66.52;98199.17;124610;1098;64245;-80
2021/05/18 14:08:44;;;;;;;4.83;2.10;;;;;;;16.95;67.32;98193.48;124774;1100;64348;-80
2021/05/18 14:11:19;;;;;;;2.20;2.00;;;;;;;17.10;67.02;98194.55;124576;1104;64399;-81
2021/05/18 14:13:55;;;;;;;1.80;1.50;;;;;;;17.21;66.07;98188.85;124575;1104;64358;-81
2021/05/18 14:16:23;;;;;;;1.67;1.50;;;;;;;17.25;66.24;98179.45;124568;1100;64375;-79
2021/05/18 14:18:53;;;;;;;4.63;1.87;;;;;;;17.37;65.69;98192.59;124563;1099;64381;-80
2021/05/18 14:21:23;;;;;;;2.40;1.63;;;;;;;17.39;65.05;98187.89;124701;1099;64371;-80
2021/05/18 14:26:20;;;;;;;1.90;1.40;;;;;;;17.44;65.43;98191.77;124476;1104;64371;-80
2021/05/18 14:28:48;;;;;;;2.55;1.70;;;;;;;17.58;64.45;98189.42;124468;1100;64333;-80
2021/05/18 14:31:17;;;;;;;4.50;1.50;;;;;;;17.51;63.72;98187.41;124553;1105;64285;-80
2021/05/18 14:33:45;;;;;;;2.07;1.50;;;;;;;17.53;64.50;98187.22;124510;1099;64298;-81
2021/05/18 14:36:13;;;;;;;4.27;1.47;;;;;;;17.51;64.62;98190.10;124570;1104;64415;-80
2021/05/18 14:38:44;;;;;;;1.67;1.20;;;;;;;17.46;63.65;98184.37;124448;1104;64480;-81
2021/05/18 14:44:11;;;;;;;2.10;1.70;;;;;;;17.12;62.94;98187.16;124638;1100;64345;-80
2021/05/18 14:56:55;;;;;;;2.37;1.80;;;;;;;16.75;64.12;98207.18;124542;1104;64328;-81
2021/05/18 14:59:23;;;;;;;4.75;2.43;;;;;;;16.82;63.77;98202.02;124600;1104;64367;-81
2021/05/18 15:01:50;;;;;;;3.47;2.53;;;;;;;16.79;63.40;98205.86;124552;1104;64249;-81
2021/05/18 15:04:18;;;;;;;5.53;2.93;;;;;;;16.57;63.49;98211.80;124553;1105;64495;-80
2021/05/18 15:06:45;;;;;;;3.47;1.73;;;;;;;16.22;62.23;98227.89;124576;1099;64400;-79
2021/05/18 15:09:12;;;;;;;2.05;1.60;;;;;;;15.80;62.53;98254.59;124480;1099;64332;-82
2021/05/18 15:11:40;;;;;;;2.40;1.70;;;;;;;15.46;63.24;98257.92;124556;1100;65840;-80
2021/05/18 15:14:09;;;;;;;2.03;1.60;;;;;;;15.06;62.52;98256.46;124469;1099;64342;-80
2021/05/18 15:16:36;;;;;;;2.70;1.40;;;;;;;14.65;64.58;98276.53;124666;1099;64483;-80
2021/05/18 15:19:15;;;;;;;1.70;0.90;;;;;;;14.28;65.95;98277.30;124529;1104;64343;-81
2021/05/18 15:21:43;;;;;;;1.75;1.15;;;;;;;13.93;67.48;98288.59;124567;1104;64285;-81
2021/05/18 15:24:11;;;;;;;2.93;1.57;;;;;;;13.64;68.38;98278.74;124586;1104;64364;-80
2021/05/18 15:26:39;;;;;;;1.53;1.17;;;;;;;13.44;69.75;98285.05;124678;1098;64525;-80
2021/05/18 15:29:06;;;;;;;1.90;1.40;;;;;;;13.21;69.77;98295.09;124545;1104;64489;-81
2021/05/18 15:31:34;;;;;;;2.05;1.80;;;;;;;13.03;70.83;98295.73;124497;1104;64441;-82
2021/05/18 15:34:01;;;;;;;1.57;1.33;;;;;;;12.89;71.39;98285.42;124463;1104;64345;-81
2021/05/18 15:36:28;;;;;;;2.50;1.80;;;;;;;12.80;71.98;98278.22;124505;1099;64371;-83
2021/05/18 15:38:56;;;;;;;3.63;2.90;;;;;;;12.76;72.35;98282.97;124547;1104;64297;-80
2021/05/18 15:41:23;;;;;;;3.13;2.17;;;;;;;12.77;72.92;98287.35;124542;1104;64493;-81
2021/05/18 15:43:51;;;;;;;3.63;2.33;;;;;;;12.78;73.03;98274.83;124577;1099;64341;-81
2021/05/18 15:46:18;;;;;;;1.73;1.43;;;;;;;12.87;73.10;98274.00;124198;1104;64367;-82
2021/05/18 15:48:45;;;;;;;3.27;2.37;;;;;;;13.01;73.23;98275.48;124558;1104;64364;-81
2021/05/18 15:51:13;;;;;;;3.60;2.60;;;;;;;13.07;73.25;98280.28;124573;1098;64360;-81
2021/05/18 15:53:40;;;;;;;2.30;2.00;;;;;;;13.18;73.66;98275.66;124535;1100;64323;-81
2021/05/18 15:56:08;;;;;;;2.57;2.37;;;;;;;13.31;73.73;98280.79;124624;1098;64425;-81
2021/05/18 15:58:36;;;;;;;3.57;3.27;;;;;;;13.45;73.68;98284.05;124700;1105;64371;-81
2021/05/18 16:01:04;;;;;;;5.27;4.73;;;;;;;13.58;73.79;98282.80;124689;1100;64284;-81
2021/05/18 16:03:31;;;;;;;5.30;4.80;;;;;;;13.75;73.64;98283.95;124636;1098;64390;-80
2021/05/18 16:06:03;;;;;;;7.53;6.30;;;;;;;13.93;73.31;98284.11;124670;1104;64272;-81
2021/05/18 16:11:01;;;;;;;7.80;6.20;;;;;;;14.27;73.61;98272.94;124629;1099;64336;-80
2021/05/18 16:13:31;;;;;;;6.47;5.57;;;;;;;14.40;73.25;98270.80;124603;1104;64352;-81
2021/05/18 16:16:05;;;;;;;7.55;5.90;;;;;;;14.49;73.40;98267.23;124593;1099;64329;-80
2021/05/18 16:18:33;;;;;;;8.25;7.45;;;;;;;14.54;73.40;98265.99;124504;1098;64278;-81
2021/05/18 16:21:02;;;;;;;6.20;5.00;;;;;;;14.52;73.53;98268.77;124539;1099;64345;-80
2021/05/18 16:23:31;;;;;;;7.37;4.73;;;;;;;14.55;73.09;98270.36;124598;1104;64403;-80
2021/05/18 16:25:59;;;;;;;4.70;4.30;;;;;;;14.55;73.32;98275.72;124447;1099;64336;-81
2021/05/18 16:28:26;;;;;;;6.47;5.30;;;;;;;14.56;73.47;98274.71;124465;1104;64342;-81
2021/05/18 16:30:54;;;;;;;5.37;4.87;;;;;;;14.52;73.30;98282.19;124590;1099;64344;-81
2021/05/18 16:33:22;;;;;;;6.07;4.80;;;;;;;14.46;73.25;98280.93;124515;1099;64342;-81
2021/05/18 16:35:49;;;;;;;7.60;5.13;;;;;;;14.43;73.52;98289.27;124497;1104;64338;-82
2021/05/18 16:38:16;;;;;;;5.00;4.23;;;;;;;14.38;73.46;98291.53;124601;1104;64339;-81
2021/05/18 16:40:43;;;;;;;4.00;3.57;;;;;;;14.30;73.68;98283.37;124680;1099;64457;-82
2021/05/18 16:43:11;;;;;;;4.20;2.90;;;;;;;14.24;73.70;98292.83;124735;1100;64346;-82
2021/05/18 16:45:38;;;;;;;4.70;3.20;;;;;;;14.20;73.94;98296.77;124724;1104;64293;-81
2021/05/18 16:48:07;;;;;;;4.63;3.40;;;;;;;14.19;74.19;98294.22;124671;1104;64320;-81